sensor_id;sensor_type;location;lat;lon;timestamp;P1;durP1;ratioP1;P2;durP2;ratioP2
75021;SDS011;63583;49.976;20.182;2023-03-14T00:01:29;3.65;;;1.80;;
75021;SDS011;63583;49.976;20.182;2023-03-14T00:03:55;2.55;;;1.50;;
75021;SDS011;63583;49.976;20.182;2023-03-14T00:06:20;3.15;;;1.55;;
75021;SDS011;63583;49.976;20.182;2023-03-14T00:08:47;2.78;;;1.40;;
75021;SDS011;63583;49.976;20.182;2023-03-14T00:11:14;4.05;;;1.30;;
75021;SDS011;63583;49.976;20.182;2023-03-14T00:13:41;3.67;;;1.48;;
75021;SDS011;63583;49.976;20.182;2023-03-14T00:16:09;3.75;;;1.42;;
75021;SDS011;63583;49.976;20.182;2023-03-14T00:18:37;2.22;;;1.20;;
75021;SDS011;63583;49.976;20.182;2023-03-14T00:21:03;3.42;;;1.60;;
75021;SDS011;63583;49.976;20.182;2023-03-14T00:23:30;3.85;;;1.50;;
75021;SDS011;63583;49.976;20.182;2023-03-14T00:25:58;2.63;;;1.35;;
75021;SDS011;63583;49.976;20.182;2023-03-14T00:28:28;3.88;;;1.52;;
75021;SDS011;63583;49.976;20.182;2023-03-14T00:30:54;3.30;;;1.27;;
75021;SDS011;63583;49.976;20.182;2023-03-14T00:33:20;2.70;;;1.30;;
75021;SDS011;63583;49.976;20.182;2023-03-14T00:35:56;2.28;;;1.35;;
75021;SDS011;63583;49.976;20.182;2023-03-14T00:38:24;3.03;;;1.48;;
75021;SDS011;63583;49.976;20.182;2023-03-14T00:40:53;3.00;;;1.60;;
75021;SDS011;63583;49.976;20.182;2023-03-14T00:43:19;2.42;;;1.48;;
75021;SDS011;63583;49.976;20.182;2023-03-14T00:45:52;2.47;;;1.25;;
75021;SDS011;63583;49.976;20.182;2023-03-14T00:48:18;4.35;;;1.90;;
75021;SDS011;63583;49.976;20.182;2023-03-14T00:50:45;3.83;;;1.77;;
75021;SDS011;63583;49.976;20.182;2023-03-14T00:53:11;4.95;;;2.05;;
75021;SDS011;63583;49.976;20.182;2023-03-14T00:55:38;3.25;;;1.63;;
75021;SDS011;63583;49.976;20.182;2023-03-14T00:58:05;3.38;;;1.67;;
75021;SDS011;63583;49.976;20.182;2023-03-14T01:00:31;3.15;;;1.45;;
75021;SDS011;63583;49.976;20.182;2023-03-14T01:02:57;2.92;;;1.48;;
75021;SDS011;63583;49.976;20.182;2023-03-14T01:05:23;3.10;;;1.45;;
75021;SDS011;63583;49.976;20.182;2023-03-14T01:07:49;2.17;;;1.50;;
75021;SDS011;63583;49.976;20.182;2023-03-14T01:10:16;2.35;;;1.27;;
75021;SDS011;63583;49.976;20.182;2023-03-14T01:12:41;2.30;;;1.40;;
75021;SDS011;63583;49.976;20.182;2023-03-14T01:15:07;3.38;;;1.55;;
75021;SDS011;63583;49.976;20.182;2023-03-14T01:17:33;3.03;;;1.48;;
75021;SDS011;63583;49.976;20.182;2023-03-14T01:19:59;3.75;;;1.40;;
75021;SDS011;63583;49.976;20.182;2023-03-14T01:22:25;2.70;;;1.52;;
75021;SDS011;63583;49.976;20.182;2023-03-14T01:24:51;3.90;;;1.38;;
75021;SDS011;63583;49.976;20.182;2023-03-14T01:27:17;2.53;;;1.33;;
75021;SDS011;63583;49.976;20.182;2023-03-14T01:29:43;2.13;;;1.17;;
75021;SDS011;63583;49.976;20.182;2023-03-14T01:32:08;1.88;;;1.20;;
75021;SDS011;63583;49.976;20.182;2023-03-14T01:34:34;2.67;;;1.50;;
75021;SDS011;63583;49.976;20.182;2023-03-14T01:37:00;3.40;;;1.25;;
75021;SDS011;63583;49.976;20.182;2023-03-14T01:39:25;2.60;;;1.38;;
75021;SDS011;63583;49.976;20.182;2023-03-14T01:41:51;2.20;;;1.30;;
75021;SDS011;63583;49.976;20.182;2023-03-14T01:44:17;2.28;;;1.17;;
75021;SDS011;63583;49.976;20.182;2023-03-14T01:46:45;2.60;;;1.40;;
75021;SDS011;63583;49.976;20.182;2023-03-14T01:54:36;3.90;;;1.50;;
75021;SDS011;63583;49.976;20.182;2023-03-14T01:57:06;1.95;;;1.20;;
75021;SDS011;63583;49.976;20.182;2023-03-14T01:59:36;2.42;;;1.40;;
75021;SDS011;63583;49.976;20.182;2023-03-14T02:02:04;2.92;;;1.40;;
75021;SDS011;63583;49.976;20.182;2023-03-14T02:04:35;5.40;;;1.73;;
75021;SDS011;63583;49.976;20.182;2023-03-14T02:09:31;2.35;;;1.23;;
75021;SDS011;63583;49.976;20.182;2023-03-14T02:11:56;2.90;;;1.33;;
75021;SDS011;63583;49.976;20.182;2023-03-14T02:14:28;2.70;;;1.20;;
75021;SDS011;63583;49.976;20.182;2023-03-14T02:16:57;4.47;;;1.50;;
75021;SDS011;63583;49.976;20.182;2023-03-14T02:20:07;2.97;;;1.75;;
75021;SDS011;63583;49.976;20.182;2023-03-14T02:22:21;2.83;;;1.83;;
75021;SDS011;63583;49.976;20.182;2023-03-14T02:25:02;3.42;;;1.60;;
75021;SDS011;63583;49.976;20.182;2023-03-14T02:27:49;3.67;;;1.38;;
75021;SDS011;63583;49.976;20.182;2023-03-14T02:30:25;2.50;;;1.55;;
75021;SDS011;63583;49.976;20.182;2023-03-14T02:33:01;3.97;;;1.40;;
75021;SDS011;63583;49.976;20.182;2023-03-14T02:35:32;3.30;;;1.48;;
75021;SDS011;63583;49.976;20.182;2023-03-14T02:38:17;3.45;;;1.40;;
75021;SDS011;63583;49.976;20.182;2023-03-14T02:40:47;3.90;;;1.35;;
75021;SDS011;63583;49.976;20.182;2023-03-14T02:43:13;2.75;;;1.40;;
75021;SDS011;63583;49.976;20.182;2023-03-14T02:45:40;1.55;;;1.20;;
75021;SDS011;63583;49.976;20.182;2023-03-14T02:50:39;2.42;;;1.50;;
75021;SDS011;63583;49.976;20.182;2023-03-14T02:53:06;2.83;;;1.83;;
75021;SDS011;63583;49.976;20.182;2023-03-14T02:55:31;3.60;;;1.52;;
75021;SDS011;63583;49.976;20.182;2023-03-14T02:57:57;2.50;;;1.50;;
75021;SDS011;63583;49.976;20.182;2023-03-14T03:00:23;3.63;;;1.40;;
75021;SDS011;63583;49.976;20.182;2023-03-14T03:02:48;2.35;;;1.38;;
75021;SDS011;63583;49.976;20.182;2023-03-14T03:05:14;5.55;;;1.63;;
75021;SDS011;63583;49.976;20.182;2023-03-14T03:07:40;3.08;;;1.35;;
75021;SDS011;63583;49.976;20.182;2023-03-14T03:10:06;4.47;;;2.03;;
75021;SDS011;63583;49.976;20.182;2023-03-14T03:12:31;3.83;;;1.67;;
75021;SDS011;63583;49.976;20.182;2023-03-14T03:14:57;5.15;;;1.70;;
75021;SDS011;63583;49.976;20.182;2023-03-14T03:17:23;2.60;;;1.40;;
75021;SDS011;63583;49.976;20.182;2023-03-14T03:19:48;5.85;;;2.10;;
75021;SDS011;63583;49.976;20.182;2023-03-14T03:22:14;2.45;;;1.67;;
75021;SDS011;63583;49.976;20.182;2023-03-14T03:24:40;3.20;;;1.50;;
75021;SDS011;63583;49.976;20.182;2023-03-14T03:27:05;2.88;;;1.50;;
75021;SDS011;63583;49.976;20.182;2023-03-14T03:29:31;4.10;;;1.63;;
75021;SDS011;63583;49.976;20.182;2023-03-14T03:31:56;3.17;;;1.60;;
75021;SDS011;63583;49.976;20.182;2023-03-14T03:34:22;4.20;;;2.03;;
75021;SDS011;63583;49.976;20.182;2023-03-14T03:36:48;4.13;;;1.63;;
75021;SDS011;63583;49.976;20.182;2023-03-14T03:39:13;2.85;;;1.42;;
75021;SDS011;63583;49.976;20.182;2023-03-14T03:41:39;5.93;;;1.67;;
75021;SDS011;63583;49.976;20.182;2023-03-14T03:44:05;3.05;;;1.60;;
75021;SDS011;63583;49.976;20.182;2023-03-14T03:46:31;3.08;;;1.38;;
75021;SDS011;63583;49.976;20.182;2023-03-14T03:48:58;2.65;;;1.23;;
75021;SDS011;63583;49.976;20.182;2023-03-14T03:51:25;2.30;;;1.20;;
75021;SDS011;63583;49.976;20.182;2023-03-14T03:53:51;3.78;;;1.80;;
75021;SDS011;63583;49.976;20.182;2023-03-14T03:56:16;3.60;;;1.55;;
75021;SDS011;63583;49.976;20.182;2023-03-14T03:58:42;4.03;;;1.58;;
75021;SDS011;63583;49.976;20.182;2023-03-14T04:01:08;3.50;;;1.70;;
75021;SDS011;63583;49.976;20.182;2023-03-14T04:03:35;4.82;;;1.90;;
75021;SDS011;63583;49.976;20.182;2023-03-14T04:06:02;3.00;;;1.45;;
75021;SDS011;63583;49.976;20.182;2023-03-14T04:08:29;3.05;;;1.40;;
75021;SDS011;63583;49.976;20.182;2023-03-14T04:10:59;2.72;;;1.55;;
75021;SDS011;63583;49.976;20.182;2023-03-14T04:13:26;3.63;;;1.70;;
75021;SDS011;63583;49.976;20.182;2023-03-14T04:15:53;3.80;;;1.50;;
75021;SDS011;63583;49.976;20.182;2023-03-14T04:18:19;4.32;;;1.92;;
75021;SDS011;63583;49.976;20.182;2023-03-14T04:20:50;1.90;;;1.20;;
75021;SDS011;63583;49.976;20.182;2023-03-14T04:23:16;2.60;;;1.30;;
75021;SDS011;63583;49.976;20.182;2023-03-14T04:25:42;2.92;;;1.73;;
75021;SDS011;63583;49.976;20.182;2023-03-14T04:28:08;3.50;;;1.40;;
75021;SDS011;63583;49.976;20.182;2023-03-14T04:30:33;4.43;;;1.40;;
75021;SDS011;63583;49.976;20.182;2023-03-14T04:32:59;3.50;;;1.52;;
75021;SDS011;63583;49.976;20.182;2023-03-14T04:35:24;4.30;;;1.65;;
75021;SDS011;63583;49.976;20.182;2023-03-14T04:37:50;2.15;;;1.40;;
75021;SDS011;63583;49.976;20.182;2023-03-14T04:40:17;3.70;;;1.58;;
75021;SDS011;63583;49.976;20.182;2023-03-14T04:42:43;4.70;;;1.30;;
75021;SDS011;63583;49.976;20.182;2023-03-14T04:45:09;2.22;;;1.45;;
75021;SDS011;63583;49.976;20.182;2023-03-14T04:47:35;2.42;;;1.17;;
75021;SDS011;63583;49.976;20.182;2023-03-14T04:50:00;2.63;;;1.40;;
75021;SDS011;63583;49.976;20.182;2023-03-14T04:52:26;2.20;;;1.10;;
75021;SDS011;63583;49.976;20.182;2023-03-14T04:54:52;3.35;;;1.60;;
75021;SDS011;63583;49.976;20.182;2023-03-14T04:57:17;2.28;;;1.05;;
75021;SDS011;63583;49.976;20.182;2023-03-14T04:59:43;4.55;;;1.50;;
75021;SDS011;63583;49.976;20.182;2023-03-14T05:02:09;1.90;;;1.10;;
75021;SDS011;63583;49.976;20.182;2023-03-14T05:04:34;3.63;;;0.93;;
75021;SDS011;63583;49.976;20.182;2023-03-14T05:07:00;4.13;;;1.33;;
75021;SDS011;63583;49.976;20.182;2023-03-14T05:09:26;3.20;;;1.63;;
75021;SDS011;63583;49.976;20.182;2023-03-14T05:11:52;4.40;;;1.60;;
75021;SDS011;63583;49.976;20.182;2023-03-14T05:14:17;4.22;;;1.45;;
75021;SDS011;63583;49.976;20.182;2023-03-14T05:16:43;3.38;;;1.48;;
75021;SDS011;63583;49.976;20.182;2023-03-14T05:19:10;4.55;;;1.50;;
75021;SDS011;63583;49.976;20.182;2023-03-14T05:21:36;7.43;;;1.55;;
75021;SDS011;63583;49.976;20.182;2023-03-14T05:24:02;4.88;;;1.40;;
75021;SDS011;63583;49.976;20.182;2023-03-14T05:26:28;3.10;;;1.33;;
75021;SDS011;63583;49.976;20.182;2023-03-14T05:28:53;2.50;;;1.10;;
75021;SDS011;63583;49.976;20.182;2023-03-14T05:31:19;4.53;;;1.40;;
75021;SDS011;63583;49.976;20.182;2023-03-14T05:33:45;1.48;;;0.98;;
75021;SDS011;63583;49.976;20.182;2023-03-14T05:36:11;4.70;;;1.33;;
75021;SDS011;63583;49.976;20.182;2023-03-14T05:38:37;2.97;;;1.40;;
75021;SDS011;63583;49.976;20.182;2023-03-14T05:41:03;2.72;;;1.23;;
75021;SDS011;63583;49.976;20.182;2023-03-14T05:43:28;3.10;;;1.35;;
75021;SDS011;63583;49.976;20.182;2023-03-14T05:45:54;2.75;;;1.35;;
75021;SDS011;63583;49.976;20.182;2023-03-14T05:48:20;1.90;;;1.20;;
75021;SDS011;63583;49.976;20.182;2023-03-14T05:50:47;2.55;;;1.30;;
75021;SDS011;63583;49.976;20.182;2023-03-14T05:53:13;4.22;;;1.20;;
75021;SDS011;63583;49.976;20.182;2023-03-14T05:55:39;2.40;;;1.42;;
75021;SDS011;63583;49.976;20.182;2023-03-14T05:58:05;3.75;;;1.33;;
75021;SDS011;63583;49.976;20.182;2023-03-14T06:00:31;2.17;;;1.20;;
75021;SDS011;63583;49.976;20.182;2023-03-14T06:02:56;3.53;;;1.60;;
75021;SDS011;63583;49.976;20.182;2023-03-14T06:05:22;5.20;;;2.15;;
75021;SDS011;63583;49.976;20.182;2023-03-14T06:07:47;2.50;;;1.33;;
75021;SDS011;63583;49.976;20.182;2023-03-14T06:10:13;2.33;;;1.40;;
75021;SDS011;63583;49.976;20.182;2023-03-14T06:12:39;2.75;;;1.48;;
75021;SDS011;63583;49.976;20.182;2023-03-14T06:15:05;3.20;;;1.70;;
75021;SDS011;63583;49.976;20.182;2023-03-14T06:17:30;4.65;;;1.73;;
75021;SDS011;63583;49.976;20.182;2023-03-14T06:19:56;2.40;;;1.20;;
75021;SDS011;63583;49.976;20.182;2023-03-14T06:22:22;3.60;;;1.60;;
75021;SDS011;63583;49.976;20.182;2023-03-14T06:24:47;4.32;;;1.33;;
75021;SDS011;63583;49.976;20.182;2023-03-14T06:27:13;2.55;;;1.40;;
75021;SDS011;63583;49.976;20.182;2023-03-14T06:29:39;2.63;;;1.60;;
75021;SDS011;63583;49.976;20.182;2023-03-14T06:32:04;2.63;;;1.40;;
75021;SDS011;63583;49.976;20.182;2023-03-14T06:34:30;2.42;;;1.10;;
75021;SDS011;63583;49.976;20.182;2023-03-14T06:36:56;3.67;;;1.48;;
75021;SDS011;63583;49.976;20.182;2023-03-14T06:39:22;4.65;;;1.60;;
75021;SDS011;63583;49.976;20.182;2023-03-14T06:41:47;3.15;;;1.40;;
75021;SDS011;63583;49.976;20.182;2023-03-14T06:44:13;4.70;;;1.90;;
75021;SDS011;63583;49.976;20.182;2023-03-14T06:46:38;4.03;;;1.40;;
75021;SDS011;63583;49.976;20.182;2023-03-14T06:49:04;2.47;;;1.45;;
75021;SDS011;63583;49.976;20.182;2023-03-14T06:51:30;2.80;;;1.50;;
75021;SDS011;63583;49.976;20.182;2023-03-14T06:53:55;2.63;;;1.38;;
75021;SDS011;63583;49.976;20.182;2023-03-14T06:56:21;4.20;;;1.92;;
75021;SDS011;63583;49.976;20.182;2023-03-14T06:58:47;3.25;;;1.52;;
75021;SDS011;63583;49.976;20.182;2023-03-14T07:01:31;3.95;;;1.40;;
75021;SDS011;63583;49.976;20.182;2023-03-14T07:04:00;2.70;;;1.30;;
75021;SDS011;63583;49.976;20.182;2023-03-14T07:06:26;3.97;;;1.55;;
75021;SDS011;63583;49.976;20.182;2023-03-14T07:08:54;4.93;;;2.03;;
75021;SDS011;63583;49.976;20.182;2023-03-14T07:11:20;2.95;;;1.67;;
75021;SDS011;63583;49.976;20.182;2023-03-14T07:13:47;2.85;;;1.50;;
75021;SDS011;63583;49.976;20.182;2023-03-14T07:16:12;2.53;;;1.50;;
75021;SDS011;63583;49.976;20.182;2023-03-14T07:18:38;4.93;;;1.55;;
75021;SDS011;63583;49.976;20.182;2023-03-14T07:21:05;2.47;;;1.50;;
75021;SDS011;63583;49.976;20.182;2023-03-14T07:23:36;2.67;;;1.50;;
75021;SDS011;63583;49.976;20.182;2023-03-14T07:26:02;3.10;;;1.52;;
75021;SDS011;63583;49.976;20.182;2023-03-14T07:28:27;4.22;;;1.95;;
75021;SDS011;63583;49.976;20.182;2023-03-14T07:30:53;4.05;;;1.63;;
75021;SDS011;63583;49.976;20.182;2023-03-14T07:33:20;4.65;;;1.70;;
75021;SDS011;63583;49.976;20.182;2023-03-14T07:35:49;4.35;;;1.70;;
75021;SDS011;63583;49.976;20.182;2023-03-14T07:38:15;4.22;;;1.90;;
75021;SDS011;63583;49.976;20.182;2023-03-14T07:40:41;4.18;;;1.70;;
75021;SDS011;63583;49.976;20.182;2023-03-14T07:43:07;3.22;;;1.52;;
75021;SDS011;63583;49.976;20.182;2023-03-14T07:45:32;5.28;;;2.30;;
75021;SDS011;63583;49.976;20.182;2023-03-14T07:47:58;3.13;;;1.67;;
75021;SDS011;63583;49.976;20.182;2023-03-14T07:50:24;3.10;;;1.58;;
75021;SDS011;63583;49.976;20.182;2023-03-14T07:52:51;3.17;;;1.75;;
75021;SDS011;63583;49.976;20.182;2023-03-14T07:55:16;4.07;;;1.60;;
75021;SDS011;63583;49.976;20.182;2023-03-14T07:57:42;3.55;;;1.65;;
75021;SDS011;63583;49.976;20.182;2023-03-14T08:00:08;2.50;;;1.58;;
75021;SDS011;63583;49.976;20.182;2023-03-14T08:02:34;3.13;;;1.70;;
75021;SDS011;63583;49.976;20.182;2023-03-14T08:05:01;3.25;;;1.77;;
75021;SDS011;63583;49.976;20.182;2023-03-14T08:07:27;2.70;;;1.50;;
75021;SDS011;63583;49.976;20.182;2023-03-14T08:09:53;2.75;;;1.33;;
75021;SDS011;63583;49.976;20.182;2023-03-14T08:12:19;2.80;;;1.48;;
75021;SDS011;63583;49.976;20.182;2023-03-14T08:14:44;3.28;;;1.60;;
75021;SDS011;63583;49.976;20.182;2023-03-14T08:17:10;3.97;;;1.70;;
75021;SDS011;63583;49.976;20.182;2023-03-14T08:19:35;4.35;;;2.42;;
75021;SDS011;63583;49.976;20.182;2023-03-14T08:22:01;3.50;;;1.40;;
75021;SDS011;63583;49.976;20.182;2023-03-14T08:24:28;5.15;;;2.28;;
75021;SDS011;63583;49.976;20.182;2023-03-14T08:26:53;5.70;;;1.67;;
75021;SDS011;63583;49.976;20.182;2023-03-14T08:29:19;2.83;;;1.65;;
75021;SDS011;63583;49.976;20.182;2023-03-14T08:31:45;4.53;;;1.80;;
75021;SDS011;63583;49.976;20.182;2023-03-14T08:34:11;4.50;;;2.10;;
75021;SDS011;63583;49.976;20.182;2023-03-14T08:36:36;3.28;;;1.42;;
75021;SDS011;63583;49.976;20.182;2023-03-14T08:39:02;2.03;;;1.30;;
75021;SDS011;63583;49.976;20.182;2023-03-14T08:41:29;3.05;;;1.48;;
75021;SDS011;63583;49.976;20.182;2023-03-14T08:43:54;3.58;;;1.65;;
75021;SDS011;63583;49.976;20.182;2023-03-14T08:46:20;2.70;;;1.80;;
75021;SDS011;63583;49.976;20.182;2023-03-14T08:48:46;3.20;;;1.80;;
75021;SDS011;63583;49.976;20.182;2023-03-14T08:51:13;4.82;;;2.15;;
75021;SDS011;63583;49.976;20.182;2023-03-14T08:53:39;3.92;;;2.10;;
75021;SDS011;63583;49.976;20.182;2023-03-14T08:56:06;2.88;;;1.63;;
75021;SDS011;63583;49.976;20.182;2023-03-14T08:58:32;3.80;;;1.77;;
75021;SDS011;63583;49.976;20.182;2023-03-14T09:00:58;3.97;;;1.90;;
75021;SDS011;63583;49.976;20.182;2023-03-14T09:03:24;9.10;;;3.03;;
75021;SDS011;63583;49.976;20.182;2023-03-14T09:05:51;5.82;;;3.28;;
75021;SDS011;63583;49.976;20.182;2023-03-14T09:08:17;2.92;;;1.75;;
75021;SDS011;63583;49.976;20.182;2023-03-14T09:10:43;3.65;;;1.65;;
75021;SDS011;63583;49.976;20.182;2023-03-14T09:13:09;3.40;;;1.65;;
75021;SDS011;63583;49.976;20.182;2023-03-14T09:15:34;4.78;;;1.50;;
75021;SDS011;63583;49.976;20.182;2023-03-14T09:18:00;4.85;;;2.05;;
75021;SDS011;63583;49.976;20.182;2023-03-14T09:20:26;3.22;;;2.03;;
75021;SDS011;63583;49.976;20.182;2023-03-14T09:22:51;3.05;;;1.50;;
75021;SDS011;63583;49.976;20.182;2023-03-14T09:25:17;3.55;;;2.05;;
75021;SDS011;63583;49.976;20.182;2023-03-14T09:27:43;3.95;;;1.73;;
75021;SDS011;63583;49.976;20.182;2023-03-14T09:30:09;2.95;;;1.70;;
75021;SDS011;63583;49.976;20.182;2023-03-14T09:32:35;3.03;;;1.60;;
75021;SDS011;63583;49.976;20.182;2023-03-14T09:35:00;3.38;;;1.90;;
75021;SDS011;63583;49.976;20.182;2023-03-14T09:37:26;3.47;;;1.90;;
75021;SDS011;63583;49.976;20.182;2023-03-14T09:39:52;4.28;;;2.10;;
75021;SDS011;63583;49.976;20.182;2023-03-14T09:42:18;3.28;;;1.70;;
75021;SDS011;63583;49.976;20.182;2023-03-14T09:44:52;4.28;;;2.00;;
75021;SDS011;63583;49.976;20.182;2023-03-14T09:47:19;3.92;;;1.90;;
75021;SDS011;63583;49.976;20.182;2023-03-14T09:49:45;2.67;;;1.63;;
75021;SDS011;63583;49.976;20.182;2023-03-14T09:52:13;4.07;;;1.70;;
75021;SDS011;63583;49.976;20.182;2023-03-14T09:54:57;2.90;;;1.90;;
75021;SDS011;63583;49.976;20.182;2023-03-14T09:57:27;2.92;;;1.42;;
75021;SDS011;63583;49.976;20.182;2023-03-14T09:59:57;3.53;;;2.03;;
75021;SDS011;63583;49.976;20.182;2023-03-14T10:02:34;3.08;;;1.98;;
75021;SDS011;63583;49.976;20.182;2023-03-14T10:05:01;3.35;;;2.08;;
75021;SDS011;63583;49.976;20.182;2023-03-14T10:07:31;3.95;;;1.60;;
75021;SDS011;63583;49.976;20.182;2023-03-14T10:09:58;3.85;;;1.92;;
75021;SDS011;63583;49.976;20.182;2023-03-14T10:12:37;5.43;;;2.13;;
75021;SDS011;63583;49.976;20.182;2023-03-14T10:15:08;4.95;;;1.77;;
75021;SDS011;63583;49.976;20.182;2023-03-14T10:17:39;2.53;;;1.55;;
75021;SDS011;63583;49.976;20.182;2023-03-14T10:22:57;5.15;;;2.10;;
75021;SDS011;63583;49.976;20.182;2023-03-14T10:25:26;3.60;;;2.20;;
75021;SDS011;63583;49.976;20.182;2023-03-14T10:27:53;3.72;;;2.17;;
75021;SDS011;63583;49.976;20.182;2023-03-14T10:30:30;3.80;;;2.08;;
75021;SDS011;63583;49.976;20.182;2023-03-14T10:33:56;3.25;;;1.77;;
75021;SDS011;63583;49.976;20.182;2023-03-14T10:36:20;2.67;;;1.63;;
75021;SDS011;63583;49.976;20.182;2023-03-14T10:38:51;2.83;;;1.65;;
75021;SDS011;63583;49.976;20.182;2023-03-14T10:41:41;3.58;;;1.92;;
75021;SDS011;63583;49.976;20.182;2023-03-14T10:44:12;4.03;;;1.92;;
75021;SDS011;63583;49.976;20.182;2023-03-14T10:46:38;4.90;;;1.92;;
75021;SDS011;63583;49.976;20.182;2023-03-14T10:49:04;3.20;;;2.20;;
75021;SDS011;63583;49.976;20.182;2023-03-14T10:51:31;3.55;;;1.85;;
75021;SDS011;63583;49.976;20.182;2023-03-14T10:54:12;3.15;;;1.73;;
75021;SDS011;63583;49.976;20.182;2023-03-14T10:56:39;4.88;;;1.75;;
75021;SDS011;63583;49.976;20.182;2023-03-14T10:59:10;4.15;;;2.00;;
75021;SDS011;63583;49.976;20.182;2023-03-14T11:10:02;4.10;;;2.10;;
75021;SDS011;63583;49.976;20.182;2023-03-14T11:15:34;3.72;;;1.88;;
75021;SDS011;63583;49.976;20.182;2023-03-14T11:23:18;3.63;;;1.95;;
75021;SDS011;63583;49.976;20.182;2023-03-14T11:28:46;7.40;;;2.97;;
75021;SDS011;63583;49.976;20.182;2023-03-14T11:33:55;7.15;;;2.40;;
75021;SDS011;63583;49.976;20.182;2023-03-14T11:36:31;3.60;;;1.50;;
75021;SDS011;63583;49.976;20.182;2023-03-14T11:39:03;2.90;;;1.65;;
75021;SDS011;63583;49.976;20.182;2023-03-14T11:41:46;3.38;;;1.67;;
75021;SDS011;63583;49.976;20.182;2023-03-14T11:44:20;2.50;;;1.55;;
75021;SDS011;63583;49.976;20.182;2023-03-14T11:46:52;3.30;;;2.13;;
75021;SDS011;63583;49.976;20.182;2023-03-14T11:52:05;4.53;;;2.65;;
75021;SDS011;63583;49.976;20.182;2023-03-14T11:57:29;7.57;;;2.10;;
75021;SDS011;63583;49.976;20.182;2023-03-14T11:59:56;2.85;;;1.63;;
75021;SDS011;63583;49.976;20.182;2023-03-14T12:02:33;4.97;;;2.55;;
75021;SDS011;63583;49.976;20.182;2023-03-14T12:10:42;5.90;;;2.60;;
75021;SDS011;63583;49.976;20.182;2023-03-14T12:13:10;6.72;;;2.50;;
75021;SDS011;63583;49.976;20.182;2023-03-14T12:15:41;5.78;;;2.42;;
75021;SDS011;63583;49.976;20.182;2023-03-14T12:18:19;5.85;;;2.38;;
75021;SDS011;63583;49.976;20.182;2023-03-14T12:20:53;3.75;;;1.98;;
75021;SDS011;63583;49.976;20.182;2023-03-14T12:23:21;4.43;;;2.13;;
75021;SDS011;63583;49.976;20.182;2023-03-14T12:25:47;3.03;;;1.58;;
75021;SDS011;63583;49.976;20.182;2023-03-14T12:28:17;4.80;;;1.80;;
75021;SDS011;63583;49.976;20.182;2023-03-14T12:30:45;6.80;;;2.28;;
75021;SDS011;63583;49.976;20.182;2023-03-14T12:43:47;6.80;;;3.05;;
75021;SDS011;63583;49.976;20.182;2023-03-14T12:48:50;4.40;;;2.13;;
75021;SDS011;63583;49.976;20.182;2023-03-14T12:51:34;3.63;;;1.80;;
75021;SDS011;63583;49.976;20.182;2023-03-14T12:54:21;2.80;;;1.73;;
75021;SDS011;63583;49.976;20.182;2023-03-14T12:57:03;4.68;;;2.30;;
75021;SDS011;63583;49.976;20.182;2023-03-14T13:00:00;4.75;;;2.20;;
75021;SDS011;63583;49.976;20.182;2023-03-14T13:05:09;4.70;;;1.70;;
75021;SDS011;63583;49.976;20.182;2023-03-14T13:10:22;3.38;;;2.10;;
75021;SDS011;63583;49.976;20.182;2023-03-14T13:12:51;6.22;;;3.47;;
75021;SDS011;63583;49.976;20.182;2023-03-14T13:15:26;7.55;;;4.05;;
75021;SDS011;63583;49.976;20.182;2023-03-14T13:17:53;6.68;;;4.22;;
75021;SDS011;63583;49.976;20.182;2023-03-14T13:20:29;4.93;;;2.83;;
75021;SDS011;63583;49.976;20.182;2023-03-14T13:22:57;4.97;;;2.40;;
75021;SDS011;63583;49.976;20.182;2023-03-14T13:25:23;4.93;;;2.85;;
75021;SDS011;63583;49.976;20.182;2023-03-14T13:27:51;4.72;;;3.03;;
75021;SDS011;63583;49.976;20.182;2023-03-14T13:30:19;5.07;;;2.50;;
75021;SDS011;63583;49.976;20.182;2023-03-14T13:32:48;4.38;;;2.25;;
75021;SDS011;63583;49.976;20.182;2023-03-14T13:35:15;4.72;;;2.50;;
75021;SDS011;63583;49.976;20.182;2023-03-14T13:37:45;3.75;;;2.20;;
75021;SDS011;63583;49.976;20.182;2023-03-14T13:40:23;4.32;;;2.58;;
75021;SDS011;63583;49.976;20.182;2023-03-14T13:43:11;6.03;;;3.58;;
75021;SDS011;63583;49.976;20.182;2023-03-14T13:48:16;8.27;;;5.53;;
75021;SDS011;63583;49.976;20.182;2023-03-14T13:50:48;4.68;;;2.40;;
75021;SDS011;63583;49.976;20.182;2023-03-14T13:53:16;4.22;;;2.78;;
75021;SDS011;63583;49.976;20.182;2023-03-14T13:55:42;8.48;;;3.60;;
75021;SDS011;63583;49.976;20.182;2023-03-14T13:58:12;3.65;;;2.33;;
75021;SDS011;63583;49.976;20.182;2023-03-14T14:00:52;6.72;;;2.75;;
75021;SDS011;63583;49.976;20.182;2023-03-14T14:03:40;5.57;;;2.33;;
75021;SDS011;63583;49.976;20.182;2023-03-14T14:06:10;4.40;;;2.58;;
75021;SDS011;63583;49.976;20.182;2023-03-14T14:08:44;9.43;;;3.65;;
75021;SDS011;63583;49.976;20.182;2023-03-14T14:11:13;4.57;;;2.35;;
75021;SDS011;63583;49.976;20.182;2023-03-14T14:13:46;5.65;;;2.65;;
75021;SDS011;63583;49.976;20.182;2023-03-14T14:16:12;4.88;;;2.45;;
75021;SDS011;63583;49.976;20.182;2023-03-14T14:18:39;5.80;;;2.70;;
75021;SDS011;63583;49.976;20.182;2023-03-14T14:21:05;5.28;;;2.92;;
75021;SDS011;63583;49.976;20.182;2023-03-14T14:23:32;3.92;;;2.22;;
75021;SDS011;63583;49.976;20.182;2023-03-14T14:25:58;4.22;;;2.05;;
75021;SDS011;63583;49.976;20.182;2023-03-14T14:36:02;6.25;;;2.83;;
75021;SDS011;63583;49.976;20.182;2023-03-14T14:38:28;10.77;;;5.38;;
75021;SDS011;63583;49.976;20.182;2023-03-14T14:40:58;18.88;;;7.65;;
75021;SDS011;63583;49.976;20.182;2023-03-14T14:43:26;14.57;;;6.00;;
75021;SDS011;63583;49.976;20.182;2023-03-14T14:45:54;6.03;;;3.13;;
75021;SDS011;63583;49.976;20.182;2023-03-14T14:48:24;6.38;;;3.20;;
75021;SDS011;63583;49.976;20.182;2023-03-14T14:53:39;6.70;;;2.90;;
75021;SDS011;63583;49.976;20.182;2023-03-14T14:56:07;5.22;;;3.08;;
75021;SDS011;63583;49.976;20.182;2023-03-14T14:58:43;5.50;;;2.72;;
75021;SDS011;63583;49.976;20.182;2023-03-14T15:01:14;4.45;;;2.55;;
75021;SDS011;63583;49.976;20.182;2023-03-14T15:03:46;8.70;;;3.30;;
75021;SDS011;63583;49.976;20.182;2023-03-14T15:06:13;8.05;;;3.90;;
75021;SDS011;63583;49.976;20.182;2023-03-14T15:08:42;7.82;;;3.35;;
75021;SDS011;63583;49.976;20.182;2023-03-14T15:11:12;4.95;;;2.90;;
75021;SDS011;63583;49.976;20.182;2023-03-14T15:13:42;6.75;;;3.33;;
75021;SDS011;63583;49.976;20.182;2023-03-14T15:16:09;6.80;;;3.45;;
75021;SDS011;63583;49.976;20.182;2023-03-14T15:18:36;5.68;;;3.00;;
75021;SDS011;63583;49.976;20.182;2023-03-14T15:21:02;11.93;;;4.57;;
75021;SDS011;63583;49.976;20.182;2023-03-14T15:23:28;4.72;;;2.47;;
75021;SDS011;63583;49.976;20.182;2023-03-14T15:25:53;6.10;;;2.65;;
75021;SDS011;63583;49.976;20.182;2023-03-14T15:28:20;5.65;;;2.80;;
75021;SDS011;63583;49.976;20.182;2023-03-14T15:30:48;10.60;;;3.95;;
75021;SDS011;63583;49.976;20.182;2023-03-14T15:33:16;6.85;;;3.45;;
75021;SDS011;63583;49.976;20.182;2023-03-14T15:35:42;4.82;;;2.38;;
75021;SDS011;63583;49.976;20.182;2023-03-14T15:38:09;4.40;;;2.25;;
75021;SDS011;63583;49.976;20.182;2023-03-14T15:40:40;4.47;;;2.92;;
75021;SDS011;63583;49.976;20.182;2023-03-14T15:43:06;6.25;;;3.28;;
75021;SDS011;63583;49.976;20.182;2023-03-14T15:45:32;6.85;;;3.50;;
75021;SDS011;63583;49.976;20.182;2023-03-14T15:47:58;6.28;;;3.70;;
75021;SDS011;63583;49.976;20.182;2023-03-14T15:50:24;9.43;;;4.55;;
75021;SDS011;63583;49.976;20.182;2023-03-14T15:52:50;7.55;;;3.65;;
75021;SDS011;63583;49.976;20.182;2023-03-14T15:55:16;7.65;;;3.50;;
75021;SDS011;63583;49.976;20.182;2023-03-14T15:57:43;8.18;;;3.90;;